Time;durP1;ratioP1;P1;durP2;ratioP2;P2;SDS_P1;SDS_P2;PMS_P1;PMS_P2;Temp;Humidity;BMP_temperature;BMP_pressure;BME280_temperature;BME280_humidity;BME280_pressure;Samples;Min_cycle;Max_cycle;Signal;HPM_P1;HPM_P2
2022/12/31 00:05:12;;;;;;;2.40;1.47;;;13.20;99.90;;;;;;20913675;28;20259;-66
2022/12/31 00:15:14;;;;;;;2.37;1.67;;;13.10;99.90;;;;;;20913278;28;20709;-65
2022/12/31 00:25:15;;;;;;;1.50;1.40;;;13.20;99.90;;;;;;20912453;28;20279;-66
2022/12/31 00:35:17;;;;;;;1.77;1.60;;;13.20;99.90;;;;;;20911856;28;20293;-67
2022/12/31 00:45:19;;;;;;;1.73;1.60;;;13.30;99.90;;;;;;20912093;28;20247;-67
2022/12/31 00:55:20;;;;;;;1.70;1.60;;;13.30;99.90;;;;;;20911127;28;20301;-68
2022/12/31 01:05:22;;;;;;;1.50;1.40;;;13.30;99.90;;;;;;20911106;28;20261;-68
2022/12/31 01:15:24;;;;;;;2.90;1.50;;;13.30;99.90;;;;;;20910862;28;20578;-68
2022/12/31 01:25:25;;;;;;;1.47;1.20;;;13.30;99.90;;;;;;20911179;28;20219;-67
2022/12/31 01:35:27;;;;;;;1.30;1.20;;;13.40;99.90;;;;;;20911908;28;20243;-67
2022/12/31 01:45:29;;;;;;;1.27;1.17;;;13.40;99.90;;;;;;20925170;28;20259;-67
2022/12/31 01:55:36;;;;;;;0.83;0.83;;;13.50;99.90;;;;;;20923824;28;20235;-65
2022/12/31 02:05:56;;;;;;;0.73;0.73;;;13.50;99.90;;;;;;20923131;28;20203;-65
2022/12/31 02:16:03;;;;;;;2.00;1.10;;;13.60;99.90;;;;;;20904668;28;20633;-67
2022/12/31 02:26:17;;;;;;;1.73;1.10;;;13.70;99.90;;;;;;20920979;28;20209;-67
2022/12/31 02:36:31;;;;;;;2.60;1.00;;;13.80;99.90;;;;;;20920375;28;20301;-67
2022/12/31 02:46:48;;;;;;;2.73;1.30;;;13.90;99.90;;;;;;20920045;28;20203;-66
2022/12/31 02:57:19;;;;;;;2.83;1.17;;;14.00;99.90;;;;;;20918888;28;20239;-67
2022/12/31 03:07:23;;;;;;;1.07;1.00;;;14.10;99.90;;;;;;20918044;28;20204;-67
2022/12/31 03:17:25;;;;;;;1.33;1.00;;;14.10;99.90;;;;;;20917159;28;20219;-67
2022/12/31 03:27:27;;;;;;;1.43;1.10;;;14.10;99.90;;;;;;20898554;28;20289;-67
2022/12/31 03:37:29;;;;;;;1.87;1.10;;;14.10;99.90;;;;;;20915768;28;20266;-67
2022/12/31 03:47:30;;;;;;;1.47;1.00;;;14.20;99.90;;;;;;20915308;28;20258;-67
2022/12/31 03:57:32;;;;;;;1.43;1.07;;;14.20;99.90;;;;;;20914076;28;20204;-67
2022/12/31 04:07:34;;;;;;;1.60;1.10;;;14.30;99.90;;;;;;20913588;28;20261;-67
2022/12/31 04:17:35;;;;;;;1.37;0.90;;;14.40;99.90;;;;;;20913322;28;20611;-67
2022/12/31 04:27:39;;;;;;;1.90;1.00;;;14.50;99.90;;;;;;20912315;28;20278;-68
2022/12/31 04:37:40;;;;;;;3.67;1.10;;;14.50;99.90;;;;;;20912023;28;20211;-67
2022/12/31 04:47:42;;;;;;;2.07;0.93;;;14.50;99.90;;;;;;20912107;28;20204;-67
2022/12/31 04:57:44;;;;;;;1.87;0.90;;;14.60;99.90;;;;;;20911552;28;20212;-67
2022/12/31 05:07:45;;;;;;;1.27;0.93;;;14.70;99.90;;;;;;20910883;28;20258;-68
2022/12/31 05:17:47;;;;;;;2.50;1.10;;;14.70;99.90;;;;;;20925144;28;20655;-68
2022/12/31 05:27:48;;;;;;;2.57;1.00;;;14.90;99.90;;;;;;20926974;28;20231;-67
2022/12/31 05:37:50;;;;;;;1.53;1.13;;;15.00;99.90;;;;;;20930382;28;20211;-67
2022/12/31 05:47:52;;;;;;;3.53;0.90;;;15.00;99.90;;;;;;20924768;28;20208;-66
2022/12/31 05:57:53;;;;;;;4.77;1.20;;;15.00;99.90;;;;;;20923623;28;20219;-67
2022/12/31 06:07:55;;;;;;;3.07;1.10;;;15.10;99.90;;;;;;20922648;28;20603;-68
2022/12/31 06:17:57;;;;;;;0.80;0.80;;;15.20;99.90;;;;;;20922532;28;20736;-67
2022/12/31 06:27:59;;;;;;;1.83;1.00;;;15.20;99.90;;;;;;20920536;28;20278;-68
2022/12/31 06:38:00;;;;;;;3.23;1.97;;;15.30;99.90;;;;;;20920411;28;20215;-68
2022/12/31 06:48:02;;;;;;;2.80;1.10;;;15.30;99.90;;;;;;20902778;28;20235;-68
2022/12/31 06:58:04;;;;;;;12.50;8.00;;;15.40;99.90;;;;;;20918802;28;20345;-67
2022/12/31 07:08:16;;;;;;;1.40;1.30;;;15.40;99.90;;;;;;20918000;28;20682;-67
2022/12/31 07:18:32;;;;;;;1.57;1.17;;;15.30;99.90;;;;;;20914394;28;20208;-72
2022/12/31 07:29:11;;;;;;;0.90;0.90;;;15.40;99.90;;;;;;20859504;28;20290;-76
2022/12/31 07:39:40;;;;;;;2.40;1.00;;;15.30;99.90;;;;;;20819362;28;20252;-68
2022/12/31 07:49:43;;;;;;;1.30;1.00;;;15.40;99.90;;;;;;20832287;28;20282;-67
2022/12/31 08:00:04;;;;;;;3.27;1.17;;;15.30;99.90;;;;;;20895414;28;20208;-69
2022/12/31 08:10:14;;;;;;;2.50;1.23;;;15.40;99.90;;;;;;20913377;28;20297;-70
2022/12/31 08:20:19;;;;;;;2.73;1.07;;;15.40;99.90;;;;;;20912941;28;20288;-68
2022/12/31 08:30:22;;;;;;;1.00;0.90;;;15.50;99.90;;;;;;20878234;28;20290;-65
2022/12/31 08:40:57;;;;;;;1.83;1.10;;;15.50;99.90;;;;;;20829944;28;20212;-67
2022/12/31 08:50:59;;;;;;;2.40;1.10;;;15.70;99.90;;;;;;20875093;28;20238;-70
2022/12/31 09:01:04;;;;;;;2.20;1.10;;;15.80;99.90;;;;;;20903783;28;20209;-69
2022/12/31 09:11:14;;;;;;;1.20;1.10;;;15.90;99.90;;;;;;20845268;28;20237;-68
2022/12/31 09:21:23;;;;;;;2.83;1.20;;;16.10;99.90;;;;;;20896099;28;20560;-68
2022/12/31 09:31:34;;;;;;;7.17;5.53;;;16.20;99.90;;;;;;20925776;28;20246;-67
2022/12/31 09:42:13;;;;;;;1.93;1.10;;;16.20;99.90;;;;;;20924991;28;20686;-68
2022/12/31 09:52:50;;;;;;;2.47;1.37;;;16.30;99.90;;;;;;20898904;28;20235;-67
2022/12/31 10:03:18;;;;;;;2.27;1.30;;;16.40;99.90;;;;;;20840470;28;20209;-67
2022/12/31 10:13:41;;;;;;;3.30;1.20;;;16.50;99.60;;;;;;20839974;28;20296;-70
2022/12/31 10:23:57;;;;;;;1.90;1.07;;;16.70;98.90;;;;;;20839299;28;20205;-66
2022/12/31 10:34:20;;;;;;;3.40;1.10;;;16.70;99.00;;;;;;20837897;28;20245;-69
2022/12/31 10:44:59;;;;;;;1.50;1.07;;;16.80;98.70;;;;;;20837751;28;20257;-66
2022/12/31 10:55:36;;;;;;;1.63;1.17;;;16.70;98.40;;;;;;20884396;28;20233;-65
2022/12/31 11:06:25;;;;;;;3.00;1.40;;;16.80;98.20;;;;;;20861439;28;20795;-67
2022/12/31 11:17:07;;;;;;;1.73;1.07;;;16.80;97.90;;;;;;20833747;28;20571;-68
2022/12/31 11:27:21;;;;;;;1.60;1.10;;;16.90;97.50;;;;;;20780190;28;20232;-67
2022/12/31 11:37:35;;;;;;;3.33;1.33;;;16.90;97.40;;;;;;20831899;28;20245;-69
2022/12/31 11:48:14;;;;;;;2.00;1.10;;;17.10;97.30;;;;;;20833087;28;20554;-67
2022/12/31 11:58:33;;;;;;;1.30;1.10;;;17.30;97.10;;;;;;20832309;28;20686;-68
2022/12/31 12:08:35;;;;;;;4.30;0.90;;;17.40;96.70;;;;;;20831109;28;20761;-69
2022/12/31 12:18:48;;;;;;;1.83;1.20;;;17.60;96.30;;;;;;20830361;28;20667;-68
2022/12/31 12:28:49;;;;;;;3.63;1.10;;;17.70;96.10;;;;;;20830944;28;20240;-68
2022/12/31 12:39:04;;;;;;;1.30;1.10;;;17.90;95.80;;;;;;20831149;28;20211;-68
2022/12/31 12:49:16;;;;;;;2.07;0.93;;;18.20;95.50;;;;;;20832471;28;20246;-67
2022/12/31 12:59:48;;;;;;;1.10;1.00;;;18.40;95.00;;;;;;20829419;28;20211;-69
2022/12/31 13:10:09;;;;;;;1.60;1.20;;;18.40;94.60;;;;;;20828269;28;20654;-68
2022/12/31 13:20:22;;;;;;;1.40;0.90;;;18.30;94.40;;;;;;20828082;28;20212;-68
2022/12/31 13:30:35;;;;;;;3.17;1.10;;;18.30;94.30;;;;;;20828611;28;20242;-68
2022/12/31 13:40:48;;;;;;;2.07;1.10;;;18.20;94.00;;;;;;20842889;28;20722;-68
2022/12/31 13:51:02;;;;;;;3.60;1.30;;;18.10;93.50;;;;;;20841674;28;20240;-69
2022/12/31 14:01:19;;;;;;;1.33;1.10;;;18.10;93.20;;;;;;20841584;28;20344;-68
2022/12/31 14:11:38;;;;;;;1.37;1.00;;;18.00;93.00;;;;;;20840259;28;20235;-68
2022/12/31 14:22:02;;;;;;;3.77;1.47;;;18.00;92.70;;;;;;20839363;28;20231;-68
2022/12/31 14:32:25;;;;;;;1.70;1.00;;;17.80;92.70;;;;;;20838740;28;20255;-68
2022/12/31 14:42:54;;;;;;;1.63;1.27;;;17.80;93.90;;;;;;20834677;28;20683;-69
2022/12/31 14:52:58;;;;;;;1.80;1.13;;;17.50;94.40;;;;;;20837006;28;20242;-69
2022/12/31 15:03:06;;;;;;;1.30;1.20;;;17.30;94.40;;;;;;20834591;28;20208;-69
2022/12/31 15:13:41;;;;;;;1.50;1.20;;;17.50;95.70;;;;;;20835688;28;20245;-69
2022/12/31 15:23:44;;;;;;;1.47;1.10;;;17.00;92.80;;;;;;20834647;28;20209;-70
2022/12/31 15:34:04;;;;;;;1.43;1.30;;;17.00;93.10;;;;;;20830222;28;20695;-69
2022/12/31 15:44:20;;;;;;;1.07;1.00;;;16.90;93.30;;;;;;20833507;28;20683;-70
2022/12/31 15:54:47;;;;;;;1.53;1.43;;;16.70;93.50;;;;;;20831665;28;20725;-70
2022/12/31 16:04:49;;;;;;;4.53;3.00;;;16.60;93.60;;;;;;20831774;28;20209;-70
2022/12/31 16:14:55;;;;;;;8.20;5.20;;;16.30;93.80;;;;;;20831680;28;20762;-71
2022/12/31 16:24:59;;;;;;;6.30;4.23;;;16.00;94.10;;;;;;20831978;28;20615;-69
2022/12/31 16:35:25;;;;;;;14.73;8.83;;;15.80;94.80;;;;;;20854742;28;20728;-70
2022/12/31 16:45:33;;;;;;;20.23;13.87;;;15.50;95.20;;;;;;20830198;28;20221;-70
2022/12/31 16:55:35;;;;;;;22.10;16.17;;;15.20;95.70;;;;;;20829551;28;20236;-70
2022/12/31 17:05:56;;;;;;;101.70;74.23;;;15.00;96.20;;;;;;20831863;28;20255;-70
2022/12/31 17:15:59;;;;;;;38.43;22.73;;;14.80;96.70;;;;;;20845353;28;20798;-70
2022/12/31 17:26:13;;;;;;;39.03;23.43;;;14.60;97.10;;;;;;20844185;28;20212;-70
2022/12/31 17:36:23;;;;;;;37.20;25.27;;;14.30;97.50;;;;;;20843375;28;20714;-70
2022/12/31 17:46:25;;;;;;;62.33;41.00;;;14.30;97.80;;;;;;20842802;28;20212;-70
2022/12/31 17:56:27;;;;;;;63.33;44.77;;;14.10;98.10;;;;;;20841605;28;20240;-70
2022/12/31 18:06:29;;;;;;;39.10;28.17;;;14.00;98.50;;;;;;20840964;28;20213;-70
2022/12/31 18:16:30;;;;;;;57.30;40.70;;;13.90;98.70;;;;;;20840183;28;20229;-69
2022/12/31 18:26:33;;;;;;;44.97;27.20;;;13.70;99.00;;;;;;20839500;28;20571;-69
2022/12/31 18:36:35;;;;;;;46.43;28.97;;;13.60;99.10;;;;;;20838574;28;20235;-70
2022/12/31 18:46:36;;;;;;;60.83;39.97;;;13.60;99.40;;;;;;20838163;28;20210;-70
2022/12/31 18:56:38;;;;;;;58.03;36.97;;;13.60;99.60;;;;;;20837048;28;20247;-70
2022/12/31 19:06:47;;;;;;;81.33;52.57;;;13.50;99.70;;;;;;20836240;28;20238;-70
2022/12/31 19:16:50;;;;;;;70.00;44.80;;;13.40;99.80;;;;;;20835748;28;20252;-70
2022/12/31 19:26:53;;;;;;;51.77;35.17;;;13.20;99.70;;;;;;20834701;28;20264;-70
2022/12/31 19:36:55;;;;;;;57.43;38.63;;;13.20;99.90;;;;;;20832941;28;20310;-70
2022/12/31 19:46:56;;;;;;;51.83;36.30;;;13.20;99.90;;;;;;20833261;28;20205;-69
2022/12/31 19:56:58;;;;;;;72.57;49.57;;;13.20;99.90;;;;;;20832855;28;20251;-70
2022/12/31 20:07:00;;;;;;;56.47;37.17;;;13.10;99.90;;;;;;20832161;28;20205;-69
2022/12/31 20:17:01;;;;;;;39.77;24.77;;;13.10;99.90;;;;;;20830929;28;20293;-68
2022/12/31 20:27:03;;;;;;;31.80;19.70;;;13.10;99.90;;;;;;20830554;28;20234;-69
2022/12/31 20:37:05;;;;;;;43.63;25.43;;;13.20;99.90;;;;;;20830039;28;20232;-70
2022/12/31 20:47:06;;;;;;;48.33;32.17;;;13.10;99.90;;;;;;20829558;28;20215;-70
2022/12/31 20:57:08;;;;;;;47.53;31.33;;;13.10;99.90;;;;;;20829763;28;20236;-69
2022/12/31 21:07:10;;;;;;;54.60;34.67;;;13.00;99.90;;;;;;20866108;28;20207;-68
2022/12/31 21:17:11;;;;;;;41.83;27.07;;;13.00;99.90;;;;;;20910676;28;20700;-69
2022/12/31 21:27:13;;;;;;;48.63;31.33;;;12.90;99.90;;;;;;20910694;28;20301;-69
2022/12/31 21:37:15;;;;;;;72.87;48.50;;;12.90;99.90;;;;;;20892546;28;20305;-68
2022/12/31 21:57:48;;;;;;;78.00;50.43;;;12.80;99.90;;;;;;20919664;28;20787;-69
2022/12/31 22:08:10;;;;;;;41.37;28.67;;;12.50;99.90;;;;;;20922414;28;20246;-70
2022/12/31 22:18:13;;;;;;;33.17;22.60;;;12.50;99.90;;;;;;20920438;28;20755;-67
2022/12/31 22:28:15;;;;;;;57.57;34.60;;;12.40;99.90;;;;;;20919768;28;20637;-68
2022/12/31 22:38:37;;;;;;;107.77;75.03;;;12.20;99.90;;;;;;20915570;28;20274;-69
2022/12/31 22:48:39;;;;;;;160.33;103.00;;;12.10;99.90;;;;;;20918037;28;20651;-69
2022/12/31 22:58:41;;;;;;;199.80;120.67;;;12.00;99.90;;;;;;20917395;28;20621;-68
2022/12/31 23:29:25;;;;;;;778.43;626.07;;;11.60;99.90;;;;;;20918959;28;20232;-68
2022/12/31 23:39:26;;;;;;;958.30;749.93;;;11.60;99.90;;;;;;20914032;28;20617;-68
2022/12/31 23:52:12;;;;;;;887.77;698.77;;;11.50;99.90;;;;;;21065716;28;20571;-68
